createdAt,value
2022-12-27T00:00:44.943Z,0.00
2022-12-27T00:01:44.942Z,0.00
2022-12-27T00:02:45.085Z,0.00
2022-12-27T00:03:45.156Z,0.00
2022-12-27T00:04:45.247Z,0.00
2022-12-27T00:05:45.449Z,0.00
2022-12-27T00:06:45.504Z,0.00
2022-12-27T00:07:45.603Z,0.00
2022-12-27T00:08:45.724Z,0.00
2022-12-27T00:09:45.810Z,0.00
2022-12-27T00:10:45.944Z,0.00
2022-12-27T00:11:46.033Z,0.00
2022-12-27T00:12:46.198Z,0.00
2022-12-27T00:13:46.241Z,0.00
2022-12-27T00:14:46.380Z,0.00
2022-12-27T00:15:46.531Z,0.00
2022-12-27T00:16:46.685Z,0.00
2022-12-27T00:17:46.740Z,0.00
2022-12-27T00:18:46.871Z,0.00
2022-12-27T00:19:46.961Z,0.00
2022-12-27T00:20:47.160Z,0.00
2022-12-27T00:21:47.230Z,0.00
2022-12-27T00:22:47.331Z,0.00
2022-12-27T00:23:47.450Z,0.00
2022-12-27T00:24:47.568Z,0.00
2022-12-27T00:25:47.680Z,0.00
2022-12-27T00:26:47.808Z,0.00
2022-12-27T00:27:47.924Z,0.00
2022-12-27T00:28:48.046Z,0.00
2022-12-27T00:29:48.165Z,0.00
2022-12-27T00:30:48.286Z,0.00
2022-12-27T00:31:48.417Z,0.00
2022-12-27T00:32:48.538Z,0.00
2022-12-27T00:33:48.617Z,0.00
2022-12-27T00:34:48.716Z,0.00
2022-12-27T00:35:48.835Z,0.00
2022-12-27T00:36:48.946Z,0.00
2022-12-27T00:37:49.048Z,0.00
2022-12-27T00:38:49.187Z,0.00
2022-12-27T00:39:49.319Z,0.00
2022-12-27T00:40:49.398Z,0.00
2022-12-27T00:41:49.514Z,0.00
2022-12-27T00:42:49.600Z,0.00
2022-12-27T00:43:49.698Z,0.00
2022-12-27T00:44:49.981Z,0.00
2022-12-27T00:45:50.008Z,0.00
2022-12-27T00:46:50.051Z,0.00
2022-12-27T00:47:50.152Z,0.00
2022-12-27T00:48:50.263Z,0.00
2022-12-27T00:49:50.365Z,0.00
2022-12-27T00:50:50.486Z,0.00
2022-12-27T00:51:50.588Z,0.00
2022-12-27T00:52:50.688Z,0.00
2022-12-27T00:53:50.802Z,0.00
2022-12-27T00:54:50.920Z,0.00
2022-12-27T00:55:51.054Z,0.00
2022-12-27T00:56:51.124Z,0.00
2022-12-27T00:57:51.254Z,0.00
2022-12-27T00:58:51.357Z,0.00
2022-12-27T00:59:51.464Z,0.00
2022-12-27T01:00:51.660Z,0.00
2022-12-27T01:01:51.761Z,0.00
2022-12-27T01:02:51.827Z,0.00
2022-12-27T01:03:51.992Z,0.00
2022-12-27T01:04:52.043Z,0.00
2022-12-27T01:05:52.208Z,0.00
2022-12-27T01:06:52.261Z,0.00
2022-12-27T01:07:52.370Z,0.00
2022-12-27T01:08:52.477Z,0.00
2022-12-27T01:09:52.608Z,0.00
2022-12-27T01:10:52.721Z,0.00
2022-12-27T01:11:52.815Z,0.00
2022-12-27T01:12:52.976Z,0.00
2022-12-27T01:13:53.097Z,0.00
2022-12-27T01:14:53.204Z,0.00
2022-12-27T01:15:53.296Z,0.00
2022-12-27T01:16:53.426Z,0.00
2022-12-27T01:17:53.517Z,0.00
2022-12-27T01:18:53.627Z,0.00
2022-12-27T01:19:53.758Z,0.00
2022-12-27T01:20:53.851Z,0.00
2022-12-27T01:21:53.955Z,0.00
2022-12-27T01:22:54.064Z,0.00
2022-12-27T01:23:54.174Z,0.00
2022-12-27T01:24:54.346Z,0.00
2022-12-27T01:25:54.393Z,0.00
2022-12-27T01:26:54.593Z,0.00
2022-12-27T01:27:54.615Z,0.00
2022-12-27T01:28:54.725Z,0.00
2022-12-27T01:29:54.886Z,0.00
2022-12-27T01:30:54.991Z,0.00
2022-12-27T01:31:55.133Z,0.00
2022-12-27T01:32:55.235Z,0.00
2022-12-27T01:33:55.366Z,0.00
2022-12-27T01:34:55.491Z,0.00
2022-12-27T01:35:55.592Z,0.00
2022-12-27T01:36:55.723Z,0.00
2022-12-27T01:37:55.821Z,0.00
2022-12-27T01:38:55.920Z,0.00
2022-12-27T01:39:56.086Z,0.00
2022-12-27T01:40:56.240Z,0.00
2022-12-27T01:41:56.251Z,0.00
2022-12-27T01:42:56.368Z,0.00
2022-12-27T01:43:56.473Z,0.00
2022-12-27T01:44:56.729Z,0.00
2022-12-27T01:45:56.723Z,0.00
2022-12-27T01:46:56.909Z,0.00
2022-12-27T01:47:56.920Z,0.00
2022-12-27T01:48:57.018Z,0.00
2022-12-27T01:49:57.175Z,0.00
2022-12-27T01:50:57.257Z,0.00
2022-12-27T01:51:57.352Z,0.00
2022-12-27T01:52:57.447Z,0.00
2022-12-27T01:53:57.557Z,0.00
2022-12-27T01:54:57.750Z,0.00
2022-12-27T01:55:57.782Z,0.00
2022-12-27T01:56:57.894Z,0.00
2022-12-27T01:57:57.993Z,0.00
2022-12-27T01:58:58.108Z,0.00
2022-12-27T01:59:58.345Z,0.00
2022-12-27T02:00:58.387Z,0.00
2022-12-27T02:01:58.630Z,0.00
2022-12-27T02:02:58.578Z,0.00
2022-12-27T02:03:58.680Z,0.00
2022-12-27T02:04:58.889Z,0.00
2022-12-27T02:05:58.889Z,0.00
2022-12-27T02:06:59.024Z,0.00
2022-12-27T02:07:59.148Z,0.00
2022-12-27T02:08:59.264Z,0.00
2022-12-27T02:09:59.389Z,0.00
2022-12-27T02:10:59.518Z,0.00
2022-12-27T02:11:59.620Z,0.00
2022-12-27T02:12:59.720Z,0.00
2022-12-27T02:13:59.822Z,0.00
2022-12-27T02:14:59.951Z,0.00
2022-12-27T02:16:00.051Z,0.00
2022-12-27T02:17:00.196Z,0.00
2022-12-27T02:18:00.303Z,0.00
2022-12-27T02:19:00.415Z,0.00
2022-12-27T02:20:00.566Z,0.00
2022-12-27T02:21:00.650Z,0.00
2022-12-27T02:22:00.749Z,0.00
2022-12-27T02:23:00.858Z,0.00
2022-12-27T02:24:00.957Z,0.00
2022-12-27T02:25:01.248Z,0.00
2022-12-27T02:26:01.187Z,0.00
2022-12-27T02:27:01.366Z,0.00
2022-12-27T02:28:01.398Z,0.00
2022-12-27T02:29:01.496Z,0.00
2022-12-27T02:30:01.625Z,0.00
2022-12-27T02:31:01.781Z,0.00
2022-12-27T02:32:01.853Z,0.00
2022-12-27T02:33:01.956Z,0.00
2022-12-27T02:34:02.054Z,0.00
2022-12-27T02:35:02.188Z,0.00
2022-12-27T02:36:02.283Z,0.00
2022-12-27T02:37:02.394Z,0.00
2022-12-27T02:38:02.496Z,0.00
2022-12-27T02:39:02.595Z,0.00
2022-12-27T02:40:02.752Z,0.00
2022-12-27T02:41:02.808Z,0.00
2022-12-27T02:42:02.935Z,0.00
2022-12-27T02:43:03.019Z,0.00
2022-12-27T02:44:03.164Z,0.00
2022-12-27T02:45:03.351Z,0.00
2022-12-27T02:46:03.378Z,0.00
2022-12-27T02:47:03.563Z,0.00
2022-12-27T02:48:03.571Z,0.00
2022-12-27T02:49:03.689Z,0.00
2022-12-27T02:50:03.842Z,0.00
2022-12-27T02:51:03.893Z,0.00
2022-12-27T02:52:04.010Z,0.00
2022-12-27T02:53:04.114Z,0.00
2022-12-27T02:54:04.216Z,0.00
2022-12-27T02:55:04.352Z,0.00
2022-12-27T02:56:04.455Z,0.00
2022-12-27T02:57:04.559Z,0.00
2022-12-27T02:58:04.694Z,0.00
2022-12-27T02:59:04.757Z,0.00
2022-12-27T03:00:04.884Z,0.00
2022-12-27T03:01:05.011Z,0.00
2022-12-27T03:02:05.333Z,0.00
2022-12-27T03:03:05.284Z,0.00
2022-12-27T03:04:05.313Z,0.00
2022-12-27T03:05:05.466Z,0.00
2022-12-27T03:06:05.524Z,0.00
2022-12-27T03:07:05.674Z,0.00
2022-12-27T03:08:05.734Z,0.00
2022-12-27T03:09:05.844Z,0.00
2022-12-27T03:10:05.971Z,0.00
2022-12-27T03:11:06.074Z,0.00
2022-12-27T03:12:06.170Z,0.00
2022-12-27T03:13:06.297Z,0.00
2022-12-27T03:14:06.385Z,0.00
2022-12-27T03:15:06.557Z,0.00
2022-12-27T03:16:06.631Z,0.00
2022-12-27T03:17:06.709Z,0.00
2022-12-27T03:18:06.818Z,0.00
2022-12-27T03:19:06.928Z,0.00
2022-12-27T03:20:07.120Z,0.00
2022-12-27T03:21:07.194Z,0.00
2022-12-27T03:22:07.273Z,0.00
2022-12-27T03:23:07.389Z,0.00
2022-12-27T03:24:07.500Z,0.00
2022-12-27T03:25:07.657Z,0.00
2022-12-27T03:26:07.718Z,0.00
2022-12-27T03:27:07.887Z,0.00
2022-12-27T03:28:07.976Z,0.00
2022-12-27T03:29:08.067Z,0.00
2022-12-27T03:30:08.187Z,0.00
2022-12-27T03:31:08.377Z,0.00
2022-12-27T03:32:08.446Z,0.00
2022-12-27T03:33:08.541Z,0.00
2022-12-27T03:34:08.644Z,0.00
2022-12-27T03:35:08.768Z,0.00
2022-12-27T03:36:08.858Z,0.00
2022-12-27T03:37:08.976Z,0.00
2022-12-27T03:38:09.084Z,0.00
2022-12-27T03:39:09.198Z,0.00
2022-12-27T03:40:09.336Z,0.00
2022-12-27T03:41:09.447Z,0.00
2022-12-27T03:42:09.552Z,0.00
2022-12-27T03:43:09.667Z,0.00
2022-12-27T03:44:09.771Z,0.00
2022-12-27T03:45:09.905Z,0.00
2022-12-27T03:46:10.045Z,0.00
2022-12-27T03:47:10.236Z,0.00
2022-12-27T03:48:10.283Z,0.00
2022-12-27T03:49:10.381Z,0.00
2022-12-27T03:50:10.549Z,0.00
2022-12-27T03:51:10.627Z,0.00
2022-12-27T03:52:10.733Z,0.00
2022-12-27T03:53:10.831Z,0.00
2022-12-27T03:54:10.953Z,0.00
2022-12-27T03:55:11.063Z,0.00
2022-12-27T03:56:11.183Z,0.00
2022-12-27T03:57:11.286Z,0.00
2022-12-27T03:58:11.384Z,0.00
2022-12-27T03:59:11.488Z,0.00
2022-12-27T04:00:11.721Z,0.00
2022-12-27T04:01:11.901Z,0.00
2022-12-27T04:02:12.030Z,0.00
2022-12-27T04:03:11.995Z,0.00
2022-12-27T04:04:12.086Z,0.00
2022-12-27T04:05:12.212Z,0.00
2022-12-27T04:06:12.333Z,0.00
2022-12-27T04:07:12.458Z,0.00
2022-12-27T04:08:12.507Z,0.00
2022-12-27T04:09:12.610Z,0.00
2022-12-27T04:10:12.748Z,0.00
2022-12-27T04:11:12.836Z,0.00
2022-12-27T04:12:12.941Z,0.00
2022-12-27T04:13:13.049Z,0.00
2022-12-27T04:14:13.148Z,0.00
2022-12-27T04:15:13.274Z,0.00
2022-12-27T04:16:13.404Z,0.00
2022-12-27T04:17:13.508Z,0.00
2022-12-27T04:18:13.596Z,0.00
2022-12-27T04:19:13.694Z,0.00
2022-12-27T04:20:13.843Z,0.00
2022-12-27T04:21:13.933Z,0.00
2022-12-27T04:22:14.039Z,0.00
2022-12-27T04:23:14.148Z,0.00
2022-12-27T04:24:14.242Z,0.00
2022-12-27T04:25:14.425Z,0.00
2022-12-27T04:26:14.463Z,0.00
2022-12-27T04:27:21.211Z,0.00
2022-12-27T04:28:14.679Z,0.00
2022-12-27T04:29:14.807Z,0.00
2022-12-27T04:30:14.962Z,0.00
2022-12-27T04:31:15.078Z,0.00
2022-12-27T04:32:15.122Z,0.00
2022-12-27T04:33:15.230Z,0.00
2022-12-27T04:34:15.337Z,0.00
2022-12-27T04:35:15.517Z,0.00
2022-12-27T04:36:15.562Z,0.00
2022-12-27T04:37:15.664Z,0.00
2022-12-27T04:38:15.776Z,0.00
2022-12-27T04:39:15.878Z,0.00
2022-12-27T04:40:16.060Z,0.00
2022-12-27T04:41:16.149Z,0.00
2022-12-27T04:42:16.208Z,0.00
2022-12-27T04:43:16.304Z,0.00
2022-12-27T04:44:16.415Z,0.00
2022-12-27T04:45:16.581Z,0.00
2022-12-27T04:46:16.664Z,0.00
2022-12-27T04:47:16.736Z,0.00
2022-12-27T04:48:16.839Z,0.00
2022-12-27T04:49:16.935Z,0.00
2022-12-27T04:50:17.065Z,0.00
2022-12-27T04:51:17.192Z,0.00
2022-12-27T04:52:17.277Z,0.00
2022-12-27T04:53:17.367Z,0.00
2022-12-27T04:54:17.488Z,0.00
2022-12-27T04:55:17.625Z,0.00
2022-12-27T04:56:17.763Z,0.00
2022-12-27T04:57:17.845Z,0.00
2022-12-27T04:58:17.947Z,0.00
2022-12-27T04:59:18.066Z,0.00
2022-12-27T05:00:18.359Z,0.00
2022-12-27T05:01:18.370Z,0.00
2022-12-27T05:02:18.510Z,0.00
2022-12-27T05:03:18.564Z,0.00
2022-12-27T05:04:18.609Z,0.00
2022-12-27T05:05:18.760Z,0.00
2022-12-27T05:06:18.816Z,0.00
2022-12-27T05:07:18.919Z,0.00
2022-12-27T05:08:19.019Z,0.00
2022-12-27T05:09:23.184Z,0.00
2022-12-27T05:10:19.268Z,0.00
2022-12-27T05:11:19.379Z,0.00
2022-12-27T05:12:19.487Z,0.00
2022-12-27T05:13:19.610Z,0.00
2022-12-27T05:14:19.689Z,0.00
2022-12-27T05:15:19.848Z,0.00
2022-12-27T05:16:19.939Z,0.00
2022-12-27T05:17:20.048Z,0.00
2022-12-27T05:18:20.138Z,0.00
2022-12-27T05:19:20.248Z,0.00
2022-12-27T05:20:20.425Z,0.00
2022-12-27T05:21:20.491Z,0.00
2022-12-27T05:22:20.581Z,0.00
2022-12-27T05:23:20.701Z,0.00
2022-12-27T05:24:20.787Z,0.00
2022-12-27T05:25:20.975Z,0.00
2022-12-27T05:26:21.024Z,0.00
2022-12-27T05:27:21.126Z,0.00
2022-12-27T05:28:21.226Z,0.00
2022-12-27T05:29:21.337Z,0.00
2022-12-27T05:30:21.485Z,0.00
2022-12-27T05:31:21.590Z,0.00
2022-12-27T05:32:21.655Z,0.00
2022-12-27T05:33:21.732Z,0.00
2022-12-27T05:34:21.860Z,0.00
2022-12-27T05:35:22.024Z,0.00
2022-12-27T05:36:22.099Z,0.00
2022-12-27T05:37:22.184Z,0.00
2022-12-27T05:38:22.283Z,0.00
2022-12-27T05:39:22.410Z,0.00
2022-12-27T05:40:22.551Z,0.00
2022-12-27T05:41:22.630Z,0.00
2022-12-27T05:42:22.783Z,0.00
2022-12-27T05:43:22.850Z,0.00
2022-12-27T05:44:22.960Z,0.00
2022-12-27T05:45:23.100Z,0.00
2022-12-27T05:46:23.240Z,0.00
2022-12-27T05:47:23.309Z,0.00
2022-12-27T05:48:23.412Z,0.00
2022-12-27T05:49:23.508Z,0.00
2022-12-27T05:50:23.678Z,0.00
2022-12-27T05:51:23.739Z,0.00
2022-12-27T05:52:23.855Z,0.00
2022-12-27T05:53:23.965Z,0.00
2022-12-27T05:54:24.073Z,0.00
2022-12-27T05:55:24.217Z,0.00
2022-12-27T05:56:24.366Z,0.00
2022-12-27T05:57:24.383Z,0.00
2022-12-27T05:58:24.474Z,0.00
2022-12-27T05:59:24.585Z,0.00
2022-12-27T06:00:24.757Z,0.00
2022-12-27T06:01:24.853Z,0.00
2022-12-27T06:02:25.035Z,0.00
2022-12-27T06:03:25.109Z,0.00
2022-12-27T06:04:25.149Z,0.00
2022-12-27T06:05:25.263Z,0.00
2022-12-27T06:06:25.387Z,0.00
2022-12-27T06:07:25.493Z,0.00
2022-12-27T06:08:25.602Z,0.00
2022-12-27T06:09:25.706Z,0.00
2022-12-27T06:10:25.825Z,0.00
2022-12-27T06:11:26.056Z,0.00
2022-12-27T06:12:26.046Z,0.00
2022-12-27T06:13:26.153Z,0.00
2022-12-27T06:14:26.269Z,0.00
2022-12-27T06:15:26.419Z,0.00
2022-12-27T06:16:26.496Z,0.00
2022-12-27T06:17:26.582Z,0.00
2022-12-27T06:18:26.709Z,0.00
2022-12-27T06:19:26.809Z,0.00
2022-12-27T06:20:26.943Z,0.00
2022-12-27T06:21:27.049Z,0.00
2022-12-27T06:22:27.174Z,0.00
2022-12-27T06:23:27.302Z,0.00
2022-12-27T06:24:27.371Z,0.00
2022-12-27T06:25:27.504Z,0.00
2022-12-27T06:26:27.588Z,0.00
2022-12-27T06:27:27.702Z,0.00
2022-12-27T06:28:27.815Z,0.00
2022-12-27T06:29:27.901Z,0.00
2022-12-27T06:30:32.868Z,0.00
2022-12-27T06:31:29.277Z,0.00
2022-12-27T06:32:28.232Z,0.00
2022-12-27T06:33:28.392Z,0.00
2022-12-27T06:34:28.507Z,0.00
2022-12-27T06:35:28.597Z,0.00
2022-12-27T06:36:28.728Z,0.00
2022-12-27T06:37:28.830Z,0.00
2022-12-27T06:38:28.982Z,0.00
2022-12-27T06:39:29.038Z,0.00
2022-12-27T06:40:29.141Z,0.00
2022-12-27T06:41:29.262Z,0.00
2022-12-27T06:42:29.367Z,0.00
2022-12-27T06:43:29.471Z,0.00
2022-12-27T06:44:29.583Z,0.00
2022-12-27T06:45:29.707Z,0.00
2022-12-27T06:46:29.819Z,0.00
2022-12-27T06:47:29.962Z,0.00
2022-12-27T06:48:30.024Z,0.00
2022-12-27T06:49:30.126Z,0.00
2022-12-27T06:50:30.231Z,0.00
2022-12-27T06:51:30.353Z,0.00
2022-12-27T06:52:30.431Z,0.00
2022-12-27T06:53:30.541Z,0.00
2022-12-27T06:54:30.658Z,0.00
2022-12-27T06:55:30.760Z,0.00
2022-12-27T06:56:30.895Z,4.00
2022-12-27T06:57:31.018Z,4.00
2022-12-27T06:58:31.102Z,0.00
2022-12-27T06:59:31.226Z,0.00
2022-12-27T07:00:31.307Z,0.00
2022-12-27T07:01:31.545Z,0.00
2022-12-27T07:02:31.569Z,4.00
2022-12-27T07:03:31.635Z,4.00
2022-12-27T07:04:31.767Z,4.00
2022-12-27T07:05:31.894Z,4.00
2022-12-27T07:06:31.973Z,4.00
2022-12-27T07:07:32.079Z,4.00
2022-12-27T07:08:32.203Z,4.00
2022-12-27T07:09:32.290Z,4.00
2022-12-27T07:10:32.422Z,8.00
2022-12-27T07:11:32.578Z,8.00
2022-12-27T07:12:36.629Z,8.00
2022-12-27T07:13:32.730Z,12.00
2022-12-27T07:14:32.838Z,12.00
2022-12-27T07:15:32.948Z,12.00
2022-12-27T07:16:33.209Z,16.00
2022-12-27T07:17:33.177Z,16.00
2022-12-27T07:18:33.288Z,20.00
2022-12-27T07:19:33.432Z,24.00
2022-12-27T07:20:33.551Z,28.00
2022-12-27T07:21:33.695Z,28.00
2022-12-27T07:22:33.755Z,36.00
2022-12-27T07:23:33.857Z,40.00
2022-12-27T07:24:33.973Z,48.00
2022-12-27T07:25:34.096Z,52.00
2022-12-27T07:26:34.224Z,56.00
2022-12-27T07:27:34.353Z,56.00
2022-12-27T07:28:34.476Z,64.00
2022-12-27T07:29:34.552Z,72.00
2022-12-27T07:30:34.654Z,76.00
2022-12-27T07:31:34.839Z,80.00
2022-12-27T07:32:34.883Z,92.00
2022-12-27T07:33:34.983Z,104.00
2022-12-27T07:34:35.099Z,112.00
2022-12-27T07:35:36.830Z,128.00
2022-12-27T07:36:35.379Z,140.00
2022-12-27T07:37:35.412Z,160.00
2022-12-27T07:38:35.575Z,160.00
2022-12-27T07:39:35.673Z,180.00
2022-12-27T07:40:35.758Z,196.00
2022-12-27T07:41:35.894Z,204.00
2022-12-27T07:42:35.966Z,228.00
2022-12-27T07:43:36.067Z,240.00
2022-12-27T07:44:36.171Z,252.00
2022-12-27T07:45:36.353Z,256.00
2022-12-27T07:46:36.408Z,264.00
2022-12-27T07:47:36.498Z,296.00
2022-12-27T07:48:36.628Z,320.00
2022-12-27T07:49:36.707Z,340.00
2022-12-27T07:50:36.843Z,360.00
2022-12-27T07:51:37.079Z,392.00
2022-12-27T07:52:37.090Z,408.00
2022-12-27T07:53:37.191Z,436.00
2022-12-27T07:54:37.306Z,444.00
2022-12-27T07:55:37.423Z,476.00
2022-12-27T07:56:37.673Z,512.00
2022-12-27T07:57:37.625Z,556.00
2022-12-27T07:58:37.737Z,588.00
2022-12-27T07:59:37.840Z,592.00
2022-12-27T08:00:37.947Z,644.00
2022-12-27T08:01:38.168Z,728.00
2022-12-27T08:02:38.165Z,712.00
2022-12-27T08:03:38.353Z,864.00
2022-12-27T08:04:38.403Z,732.00
2022-12-27T08:05:38.506Z,720.00
2022-12-27T08:06:38.685Z,732.00
2022-12-27T08:07:38.727Z,736.00
2022-12-27T08:08:38.833Z,728.00
2022-12-27T08:09:38.945Z,756.00
2022-12-27T08:10:39.040Z,812.00
2022-12-27T08:11:39.279Z,872.00
2022-12-27T08:12:39.274Z,832.00
2022-12-27T08:13:39.384Z,852.00
2022-12-27T08:14:39.506Z,888.00
2022-12-27T08:15:39.604Z,936.00
2022-12-27T08:16:39.785Z,964.00
2022-12-27T08:17:39.826Z,972.00
2022-12-27T08:18:39.920Z,960.00
2022-12-27T08:19:40.096Z,956.00
2022-12-27T08:20:40.120Z,1032.00
2022-12-27T08:21:40.280Z,1048.00
2022-12-27T08:22:40.344Z,1048.00
2022-12-27T08:23:40.457Z,1108.00
2022-12-27T08:24:40.573Z,1160.00
2022-12-27T08:25:46.710Z,1188.00
2022-12-27T08:26:41.798Z,1180.00
2022-12-27T08:27:40.899Z,1212.00
2022-12-27T08:28:41.006Z,1116.00
2022-12-27T08:29:41.295Z,1152.00
2022-12-27T08:30:41.246Z,1208.00
2022-12-27T08:31:41.360Z,1184.00
2022-12-27T08:32:41.444Z,1192.00
2022-12-27T08:33:41.575Z,1232.00
2022-12-27T08:34:41.671Z,1328.00
2022-12-27T08:35:52.622Z,1316.00
2022-12-27T08:36:55.275Z,1336.00
2022-12-27T08:37:43.023Z,1304.00
2022-12-27T08:38:42.123Z,1300.00
2022-12-27T08:39:42.215Z,1244.00
2022-12-27T08:40:42.324Z,1396.00
2022-12-27T08:41:42.465Z,1368.00
2022-12-27T08:42:42.581Z,1376.00
2022-12-27T08:43:42.684Z,1376.00
2022-12-27T08:44:42.784Z,1376.00
2022-12-27T08:45:42.890Z,1380.00
2022-12-27T08:46:43.100Z,1428.00
2022-12-27T08:47:43.104Z,1460.00
2022-12-27T08:48:43.263Z,1556.00
2022-12-27T08:49:43.313Z,1596.00
2022-12-27T08:50:43.460Z,1528.00
2022-12-27T08:51:43.525Z,2008.00
2022-12-27T08:52:43.624Z,1848.00
2022-12-27T08:53:43.738Z,1716.00
2022-12-27T08:54:43.890Z,2124.00
2022-12-27T08:55:43.997Z,2440.00
2022-12-27T08:56:44.047Z,2416.00
2022-12-27T08:57:44.160Z,2724.00
2022-12-27T08:58:44.284Z,3004.00
2022-12-27T08:59:44.407Z,2896.00
2022-12-27T09:00:44.566Z,2936.00
2022-12-27T09:01:44.748Z,2848.00
2022-12-27T09:02:44.853Z,2764.00
2022-12-27T09:03:44.827Z,2752.00
2022-12-27T09:04:44.941Z,3032.00
2022-12-27T09:05:45.097Z,3016.00
2022-12-27T09:06:45.147Z,2632.00
2022-12-27T09:07:45.341Z,2636.00
2022-12-27T09:08:45.353Z,2980.00
2022-12-27T09:09:45.456Z,3192.00
2022-12-27T09:10:45.615Z,3400.00
2022-12-27T09:11:45.673Z,3260.00
2022-12-27T09:12:45.786Z,2556.00
2022-12-27T09:13:45.894Z,1780.00
2022-12-27T09:14:45.987Z,2012.00
2022-12-27T09:15:46.141Z,2008.00
2022-12-27T09:16:46.217Z,2008.00
2022-12-27T09:17:46.339Z,1960.00
2022-12-27T09:18:46.429Z,1836.00
2022-12-27T09:19:46.552Z,1896.00
2022-12-27T09:20:46.734Z,1968.00
2022-12-27T09:21:46.794Z,1964.00
2022-12-27T09:22:46.893Z,1972.00
2022-12-27T09:23:47.024Z,2048.00
2022-12-27T09:24:47.111Z,2076.00
2022-12-27T09:25:47.453Z,2044.00
2022-12-27T09:26:47.325Z,2052.00
2022-12-27T09:27:47.560Z,2084.00
2022-12-27T09:28:47.565Z,2112.00
2022-12-27T09:29:48.596Z,2108.00
2022-12-27T09:30:47.855Z,2096.00
2022-12-27T09:31:47.888Z,2136.00
2022-12-27T09:32:47.995Z,2112.00
2022-12-27T09:33:48.107Z,2220.00
2022-12-27T09:34:48.239Z,2300.00
2022-12-27T09:35:48.381Z,2308.00
2022-12-27T09:36:48.444Z,2232.00
2022-12-27T09:37:48.556Z,2160.00
2022-12-27T09:38:48.662Z,2128.00
2022-12-27T09:39:48.758Z,2132.00
2022-12-27T09:40:48.919Z,2108.00
2022-12-27T09:42:45.019Z,2080.00
2022-12-27T09:43:01.947Z,2112.00
2022-12-27T09:43:50.214Z,2084.00
2022-12-27T09:44:49.300Z,2076.00
2022-12-27T09:45:49.482Z,2064.00
2022-12-27T09:46:49.517Z,2056.00
2022-12-27T09:47:49.672Z,2120.00
2022-12-27T09:48:49.736Z,2228.00
2022-12-27T09:49:49.847Z,2296.00
2022-12-27T09:50:49.961Z,2376.00
2022-12-27T09:51:50.116Z,2332.00
2022-12-27T09:52:50.165Z,2352.00
2022-12-27T09:53:50.277Z,2316.00
2022-12-27T09:54:50.380Z,2320.00
2022-12-27T09:55:50.509Z,2412.00
2022-12-27T09:57:51.697Z,2388.00
2022-12-27T09:58:50.789Z,2456.00
2022-12-27T09:59:50.930Z,2496.00
2022-12-27T10:00:51.016Z,2508.00
2022-12-27T10:01:51.312Z,2576.00
2022-12-27T10:02:51.264Z,2632.00
2022-12-27T10:03:51.354Z,2676.00
2022-12-27T10:05:22.237Z,2524.00
2022-12-27T10:05:56.348Z,2352.00
2022-12-27T10:06:51.759Z,2360.00
2022-12-27T10:07:51.809Z,2420.00
2022-12-27T10:08:51.925Z,2384.00
2022-12-27T10:09:52.043Z,2480.00
2022-12-27T10:10:52.158Z,2544.00
2022-12-27T10:11:52.289Z,2448.00
2022-12-27T10:12:52.349Z,2416.00
2022-12-27T10:13:52.440Z,2432.00
2022-12-27T10:14:52.563Z,2412.00
2022-12-27T10:15:52.729Z,2428.00
2022-12-27T10:16:52.806Z,2432.00
2022-12-27T10:17:53.703Z,2532.00
2022-12-27T10:18:53.023Z,2680.00
2022-12-27T10:19:53.116Z,2704.00
2022-12-27T10:20:53.224Z,2708.00
2022-12-27T10:21:53.352Z,2608.00
2022-12-27T10:22:53.442Z,2648.00
2022-12-27T10:23:53.550Z,2844.00
2022-12-27T10:24:53.667Z,2796.00
2022-12-27T10:25:53.784Z,2676.00
2022-12-27T10:26:54.000Z,2344.00
2022-12-27T10:27:54.089Z,2692.00
2022-12-27T10:28:57.173Z,2692.00
2022-12-27T10:29:54.261Z,2492.00
2022-12-27T10:30:54.444Z,2468.00
2022-12-27T10:31:54.561Z,2388.00
2022-12-27T10:32:54.577Z,2336.00
2022-12-27T10:33:54.681Z,2320.00
2022-12-27T10:34:54.798Z,3628.00
2022-12-27T10:35:54.901Z,5332.00
2022-12-27T10:36:55.060Z,5048.00
2022-12-27T10:37:55.110Z,5520.00
2022-12-27T10:38:55.216Z,5200.00
2022-12-27T10:39:55.319Z,5324.00
2022-12-27T10:40:55.440Z,5976.00
2022-12-27T10:41:55.653Z,5428.00
2022-12-27T10:42:55.640Z,5496.00
2022-12-27T10:43:55.774Z,4936.00
2022-12-27T10:44:55.867Z,4636.00
2022-12-27T10:45:55.978Z,4864.00
2022-12-27T10:46:56.211Z,6028.00
2022-12-27T10:47:56.239Z,5800.00
2022-12-27T10:49:20.288Z,5136.00
2022-12-27T10:49:57.396Z,5492.00
2022-12-27T10:50:56.489Z,6052.00
2022-12-27T10:51:56.630Z,5140.00
2022-12-27T10:52:57.898Z,4980.00
2022-12-27T10:53:56.836Z,4744.00
2022-12-27T10:54:56.946Z,5140.00
2022-12-27T10:55:57.075Z,5332.00
2022-12-27T10:56:57.188Z,5292.00
2022-12-27T10:57:57.298Z,4280.00
2022-12-27T10:58:59.236Z,3968.00
2022-12-27T10:59:57.523Z,3408.00
2022-12-27T11:00:57.667Z,3068.00
2022-12-27T11:01:57.824Z,3468.00
2022-12-27T11:02:57.944Z,3604.00
2022-12-27T11:03:57.932Z,3328.00
2022-12-27T11:04:58.041Z,2928.00
2022-12-27T11:05:58.188Z,2640.00
2022-12-27T11:06:58.325Z,2436.00
2022-12-27T11:07:58.422Z,2464.00
2022-12-27T11:08:58.542Z,2852.00
2022-12-27T11:09:58.654Z,4568.00
2022-12-27T11:10:58.745Z,6116.00
2022-12-27T11:11:58.885Z,6280.00
2022-12-27T11:12:58.991Z,5880.00
2022-12-27T11:13:59.080Z,6052.00
2022-12-27T11:14:59.235Z,5948.00
2022-12-27T11:15:59.393Z,5888.00
2022-12-27T11:16:59.419Z,6800.00
2022-12-27T11:17:59.521Z,6372.00
2022-12-27T11:18:59.647Z,6208.00
2022-12-27T11:19:59.751Z,6756.00
2022-12-27T11:20:59.862Z,6092.00
2022-12-27T11:22:00.007Z,5316.00
2022-12-27T11:23:00.093Z,4936.00
2022-12-27T11:24:00.218Z,5044.00
2022-12-27T11:25:00.315Z,3992.00
2022-12-27T11:26:00.457Z,2940.00
2022-12-27T11:27:00.581Z,2736.00
2022-12-27T11:28:00.746Z,2996.00
2022-12-27T11:29:00.806Z,3248.00
2022-12-27T11:30:00.928Z,3644.00
2022-12-27T11:31:01.079Z,3848.00
2022-12-27T11:32:01.130Z,3480.00
2022-12-27T11:33:01.285Z,2924.00
2022-12-27T11:34:01.341Z,3104.00
2022-12-27T11:35:01.455Z,3340.00
2022-12-27T11:36:01.554Z,3656.00
2022-12-27T11:37:01.674Z,3556.00
2022-12-27T11:38:01.793Z,3056.00
2022-12-27T11:39:01.913Z,3152.00
2022-12-27T11:40:02.016Z,2740.00
2022-12-27T11:41:02.116Z,2824.00
2022-12-27T11:42:02.309Z,3376.00
2022-12-27T11:43:02.355Z,3572.00
2022-12-27T11:44:02.522Z,3888.00
2022-12-27T11:45:02.640Z,3720.00
2022-12-27T11:46:02.702Z,4056.00
2022-12-27T11:47:02.863Z,4068.00
2022-12-27T11:48:02.883Z,3952.00
2022-12-27T11:49:03.028Z,4052.00
2022-12-27T11:50:03.113Z,4560.00
2022-12-27T11:51:03.231Z,4756.00
2022-12-27T11:52:03.385Z,4204.00
2022-12-27T11:53:03.440Z,3760.00
2022-12-27T11:54:03.554Z,3400.00
2022-12-27T11:55:03.655Z,3736.00
2022-12-27T11:56:03.775Z,3844.00
2022-12-27T11:57:03.878Z,3796.00
2022-12-27T11:58:03.977Z,3424.00
2022-12-27T11:59:04.108Z,3168.00
2022-12-27T12:00:04.200Z,3176.00
2022-12-27T12:01:05.614Z,3404.00
2022-12-27T12:02:04.653Z,3280.00
2022-12-27T12:03:04.657Z,3232.00
2022-12-27T12:04:04.629Z,3164.00
2022-12-27T12:05:04.878Z,3236.00
2022-12-27T12:06:04.844Z,3168.00
2022-12-27T12:07:05.016Z,3364.00
2022-12-27T12:08:05.067Z,3964.00
2022-12-27T12:09:05.193Z,4752.00
2022-12-27T12:10:05.304Z,5080.00
2022-12-27T12:11:05.441Z,5516.00
2022-12-27T12:12:05.588Z,5736.00
2022-12-27T12:13:05.669Z,5944.00
2022-12-27T12:14:05.778Z,6104.00
2022-12-27T12:15:05.879Z,5892.00
2022-12-27T12:16:06.040Z,5764.00
2022-12-27T12:17:06.184Z,5720.00
2022-12-27T12:18:06.200Z,5760.00
2022-12-27T12:19:06.318Z,5464.00
2022-12-27T12:20:07.366Z,4908.00
2022-12-27T12:21:06.516Z,5012.00
2022-12-27T12:22:06.686Z,5416.00
2022-12-27T12:23:06.758Z,5428.00
2022-12-27T12:24:06.869Z,5360.00
2022-12-27T12:25:06.964Z,4672.00
2022-12-27T12:26:07.098Z,3928.00
2022-12-27T12:27:07.208Z,3980.00
2022-12-27T12:28:23.360Z,3784.00
2022-12-27T12:29:08.436Z,3472.00
2022-12-27T12:30:07.565Z,3632.00
2022-12-27T12:31:07.636Z,3616.00
2022-12-27T12:32:07.823Z,3872.00
2022-12-27T12:33:07.861Z,4096.00
2022-12-27T12:34:07.975Z,3736.00
2022-12-27T12:35:08.084Z,3732.00
2022-12-27T12:36:08.236Z,3808.00
2022-12-27T12:37:08.304Z,3904.00
2022-12-27T12:38:08.449Z,4516.00
2022-12-27T12:39:08.506Z,4552.00
2022-12-27T12:40:08.624Z,4508.00
2022-12-27T12:41:08.774Z,4672.00
2022-12-27T12:42:08.880Z,4832.00
2022-12-27T12:43:08.953Z,5088.00
2022-12-27T12:44:09.081Z,5320.00
2022-12-27T12:45:09.234Z,5748.00
2022-12-27T12:46:09.384Z,5624.00
2022-12-27T12:47:09.536Z,5692.00
2022-12-27T12:48:09.555Z,5892.00
2022-12-27T12:49:09.641Z,5960.00
2022-12-27T12:50:13.576Z,6088.00